createdAt,value
2018-11-21T00:00:30.195Z,1.50
2018-11-21T00:02:57.613Z,1.50
2018-11-21T00:05:24.960Z,1.50
2018-11-21T00:07:52.335Z,1.50
2018-11-21T00:10:19.703Z,1.50
2018-11-21T00:12:49.612Z,1.50
2018-11-21T00:15:16.948Z,1.50
2018-11-21T00:17:44.463Z,1.50
2018-11-21T00:20:11.832Z,1.50
2018-11-21T00:22:39.180Z,1.50
2018-11-21T00:25:06.597Z,1.50
2018-11-21T00:27:34.108Z,1.40
2018-11-21T00:30:01.459Z,1.50
2018-11-21T00:32:28.800Z,1.40
2018-11-21T00:34:56.308Z,1.50
2018-11-21T00:37:24.501Z,1.50
2018-11-21T00:39:52.735Z,1.50
2018-11-21T00:42:20.143Z,1.50
2018-11-21T00:44:47.546Z,1.50
2018-11-21T00:47:15.478Z,1.40
2018-11-21T00:49:43.065Z,1.50
2018-11-21T00:52:10.704Z,1.50
2018-11-21T00:54:38.072Z,1.50
2018-11-21T00:57:05.628Z,1.50
2018-11-21T00:59:33.018Z,1.50
2018-11-21T01:02:00.395Z,1.50
2018-11-21T01:04:27.954Z,1.50
2018-11-21T01:06:55.326Z,1.40
2018-11-21T01:09:22.669Z,1.40
2018-11-21T01:11:50.070Z,1.40
2018-11-21T01:14:17.475Z,1.50
2018-11-21T01:16:44.903Z,1.50
2018-11-21T01:19:12.241Z,1.50
2018-11-21T01:21:39.635Z,1.50
2018-11-21T01:24:07.027Z,1.50
2018-11-21T01:26:34.380Z,1.50
2018-11-21T01:29:01.828Z,1.50
2018-11-21T01:31:29.541Z,1.50
2018-11-21T01:33:56.933Z,1.50
2018-11-21T01:36:24.371Z,1.50
2018-11-21T01:38:51.732Z,1.50
2018-11-21T01:41:19.079Z,1.50
2018-11-21T01:43:46.489Z,1.50
2018-11-21T01:46:13.863Z,1.50
2018-11-21T01:48:41.249Z,1.50
2018-11-21T01:51:08.687Z,1.50
2018-11-21T01:53:36.092Z,1.50
2018-11-21T01:56:03.463Z,1.50
2018-11-21T01:58:31.226Z,1.50
2018-11-21T02:00:58.610Z,1.50
2018-11-21T02:03:25.985Z,1.50
2018-11-21T02:05:53.424Z,1.50
2018-11-21T02:08:20.746Z,1.50
2018-11-21T02:10:48.152Z,1.40
2018-11-21T02:13:15.541Z,1.50
2018-11-21T02:15:42.918Z,1.50
2018-11-21T02:18:10.324Z,1.50
2018-11-21T02:20:37.692Z,1.40
2018-11-21T02:23:05.303Z,1.40
2018-11-21T02:25:32.713Z,1.40
2018-11-21T02:28:00.119Z,1.40
2018-11-21T02:30:27.615Z,1.40
2018-11-21T02:32:54.981Z,1.40
2018-11-21T02:35:22.364Z,1.40
2018-11-21T02:37:49.679Z,1.40
2018-11-21T02:40:17.042Z,1.40
2018-11-21T02:42:44.441Z,1.40
2018-11-21T02:45:11.801Z,1.40
2018-11-21T02:47:39.176Z,1.40
2018-11-21T02:50:06.562Z,1.50
2018-11-21T02:52:33.943Z,1.50
2018-11-21T02:55:01.233Z,1.40
2018-11-21T02:57:32.722Z,1.40
2018-11-21T03:00:06.256Z,1.50
2018-11-21T03:02:33.580Z,1.70
2018-11-21T03:05:00.965Z,1.40
2018-11-21T03:07:28.303Z,1.50
2018-11-21T03:09:55.649Z,1.50
2018-11-21T03:12:23.020Z,1.50
2018-11-21T03:14:50.438Z,1.50
2018-11-21T03:17:17.820Z,1.50
2018-11-21T03:19:45.167Z,1.50
2018-11-21T03:22:12.556Z,1.60
2018-11-21T03:24:39.915Z,1.50
2018-11-21T03:27:07.262Z,1.50
2018-11-21T03:29:34.593Z,1.50
2018-11-21T03:32:01.980Z,1.60
2018-11-21T03:34:29.298Z,1.50
2018-11-21T03:36:56.713Z,1.50
2018-11-21T03:39:25.020Z,1.50
2018-11-21T03:41:52.353Z,1.50
2018-11-21T03:44:19.715Z,1.50
2018-11-21T03:46:47.851Z,1.50
2018-11-21T03:49:15.641Z,1.50
2018-11-21T03:51:43.025Z,1.50
2018-11-21T03:54:10.418Z,1.50
2018-11-21T03:56:38.364Z,1.50
2018-11-21T03:59:05.969Z,1.50
2018-11-21T04:01:33.311Z,1.50
2018-11-21T04:04:00.701Z,1.50
2018-11-21T04:06:28.041Z,1.50
2018-11-21T04:08:55.541Z,1.50
2018-11-21T04:11:22.880Z,1.50
2018-11-21T04:13:50.565Z,1.50
2018-11-21T04:16:17.909Z,1.50
2018-11-21T04:18:49.284Z,1.50
2018-11-21T04:21:16.612Z,1.50
2018-11-21T04:23:44.005Z,1.50
2018-11-21T04:26:11.331Z,1.50
2018-11-21T04:28:38.706Z,1.50
2018-11-21T04:31:06.084Z,1.50
2018-11-21T04:33:33.453Z,1.50
2018-11-21T04:36:00.815Z,1.50
2018-11-21T04:38:28.158Z,1.50
2018-11-21T04:40:55.523Z,1.50
2018-11-21T04:43:22.861Z,1.50
2018-11-21T04:45:50.322Z,1.40
2018-11-21T04:48:17.663Z,1.50
2018-11-21T04:50:44.991Z,1.50
2018-11-21T04:53:12.329Z,1.60
2018-11-21T04:55:39.653Z,1.50
2018-11-21T04:58:07.031Z,1.50
2018-11-21T05:00:34.396Z,1.50
2018-11-21T05:03:01.810Z,1.50
2018-11-21T05:05:29.162Z,1.50
2018-11-21T05:07:56.501Z,1.50
2018-11-21T05:10:23.889Z,1.50
2018-11-21T05:12:51.267Z,1.50
2018-11-21T05:15:18.641Z,1.50
2018-11-21T05:17:46.002Z,1.50
2018-11-21T05:20:13.482Z,1.50
2018-11-21T05:22:40.831Z,1.60
2018-11-21T05:25:09.520Z,1.50
2018-11-21T05:27:36.944Z,1.60
2018-11-21T05:30:06.827Z,1.50
2018-11-21T05:32:34.192Z,1.50
2018-11-21T05:35:01.546Z,1.60
2018-11-21T05:37:28.929Z,1.60
2018-11-21T05:39:56.277Z,1.60
2018-11-21T05:42:23.600Z,1.60
2018-11-21T05:44:51.083Z,1.60
2018-11-21T05:47:18.385Z,1.60
2018-11-21T05:49:45.786Z,1.50
2018-11-21T05:52:13.178Z,1.60
2018-11-21T05:54:40.519Z,1.50
2018-11-21T05:57:07.907Z,1.50
2018-11-21T05:59:35.280Z,1.60
2018-11-21T06:02:02.657Z,1.60
2018-11-21T06:04:29.957Z,1.60
2018-11-21T06:06:57.269Z,1.60
2018-11-21T06:09:24.657Z,1.60
2018-11-21T06:11:51.992Z,1.70
2018-11-21T06:14:19.459Z,1.70
2018-11-21T06:16:46.817Z,1.70
2018-11-21T06:19:14.141Z,1.70
2018-11-21T06:21:41.521Z,1.70
2018-11-21T06:24:09.217Z,1.70
2018-11-21T06:26:36.755Z,1.70
2018-11-21T06:29:04.178Z,1.60
2018-11-21T06:31:31.496Z,1.60
2018-11-21T06:33:58.902Z,1.50
2018-11-21T06:36:26.213Z,1.60
2018-11-21T06:38:53.555Z,1.60
2018-11-21T06:41:20.931Z,1.60
2018-11-21T06:43:48.277Z,1.60
2018-11-21T06:46:15.645Z,1.60
2018-11-21T06:48:42.982Z,1.60
2018-11-21T06:51:10.340Z,1.60
2018-11-21T06:53:37.676Z,1.70
2018-11-21T06:56:05.030Z,1.70
2018-11-21T06:58:32.362Z,1.60
2018-11-21T07:00:59.745Z,1.70
2018-11-21T07:03:27.083Z,1.70
2018-11-21T07:05:54.463Z,1.70
2018-11-21T07:08:21.835Z,1.70
2018-11-21T07:10:49.181Z,1.70
2018-11-21T07:13:16.535Z,1.70
2018-11-21T07:15:43.902Z,1.70
2018-11-21T07:18:11.407Z,1.70
2018-11-21T07:20:38.794Z,1.70
2018-11-21T07:23:06.148Z,1.70
2018-11-21T07:25:33.509Z,1.70
2018-11-21T07:28:00.846Z,1.60
2018-11-21T07:30:28.192Z,1.70
2018-11-21T07:32:55.563Z,1.70
2018-11-21T07:35:22.908Z,1.70
2018-11-21T07:37:50.248Z,1.70
2018-11-21T07:40:17.605Z,1.80
2018-11-21T07:42:44.965Z,1.80
2018-11-21T07:45:15.721Z,1.80
2018-11-21T07:47:43.681Z,1.80
2018-11-21T07:50:13.459Z,1.80
2018-11-21T07:52:41.264Z,1.80
2018-11-21T07:55:09.310Z,1.80
2018-11-21T07:57:38.140Z,1.80
2018-11-21T08:01:03.858Z,1.80
2018-11-21T08:03:51.002Z,1.80
2018-11-21T08:06:30.388Z,1.80
2018-11-21T08:09:13.103Z,1.90
2018-11-21T08:12:17.887Z,1.90
2018-11-21T08:15:00.326Z,1.90
2018-11-21T08:17:45.297Z,1.90
2018-11-21T08:20:34.954Z,1.90
2018-11-21T08:23:21.806Z,1.90
2018-11-21T08:26:07.469Z,2.00
2018-11-21T08:28:34.821Z,2.10
2018-11-21T08:31:02.174Z,2.10
2018-11-21T08:33:33.846Z,2.10
2018-11-21T08:35:57.848Z,2.10
2018-11-21T08:38:25.212Z,2.20
2018-11-21T08:40:52.610Z,2.20
2018-11-21T08:43:19.967Z,2.20
2018-11-21T08:45:47.323Z,2.30
2018-11-21T08:48:15.435Z,2.30
2018-11-21T08:50:42.794Z,2.30
2018-11-21T08:53:10.155Z,2.30
2018-11-21T08:55:37.576Z,2.40
2018-11-21T08:58:05.614Z,2.40
2018-11-21T09:00:33.320Z,2.40
2018-11-21T09:03:00.681Z,2.50
2018-11-21T09:05:28.026Z,2.60
2018-11-21T09:07:55.403Z,2.60
2018-11-21T09:10:22.797Z,2.60
2018-11-21T09:12:50.094Z,2.60
2018-11-21T09:15:17.854Z,2.60
2018-11-21T09:17:45.751Z,2.60
2018-11-21T09:20:13.099Z,2.50
2018-11-21T09:22:40.572Z,2.60
2018-11-21T09:25:08.894Z,2.70
2018-11-21T09:27:36.661Z,2.70
2018-11-21T09:30:09.045Z,2.70
2018-11-21T09:32:36.392Z,2.80
2018-11-21T09:35:04.770Z,2.80
2018-11-21T09:37:32.252Z,2.80
2018-11-21T09:39:59.494Z,2.80
2018-11-21T09:42:26.833Z,2.80
2018-11-21T09:44:54.228Z,2.70
2018-11-21T09:47:21.608Z,2.70
2018-11-21T09:49:48.950Z,2.70
2018-11-21T09:52:16.275Z,2.70
2018-11-21T09:54:43.630Z,2.80
2018-11-21T09:57:11.021Z,2.80
2018-11-21T09:59:38.370Z,2.80
2018-11-21T10:02:42.902Z,2.80
2018-11-21T10:05:10.262Z,2.80
2018-11-21T10:07:42.681Z,2.80
2018-11-21T10:10:10.064Z,2.80
2018-11-21T10:12:37.380Z,2.80
2018-11-21T10:15:05.550Z,2.80
2018-11-21T10:17:32.976Z,2.80
2018-11-21T10:20:00.328Z,2.80
2018-11-21T10:22:27.651Z,2.80
2018-11-21T10:24:55.030Z,2.80
2018-11-21T10:27:28.265Z,2.90
2018-11-21T10:29:55.598Z,2.90
2018-11-21T10:32:22.937Z,2.90
2018-11-21T10:34:50.293Z,2.90
2018-11-21T10:37:17.749Z,2.90
2018-11-21T10:39:45.133Z,2.90
2018-11-21T10:42:12.469Z,2.90
2018-11-21T10:44:39.827Z,2.90
2018-11-21T10:47:07.166Z,2.90
2018-11-21T10:49:34.539Z,2.90
2018-11-21T10:52:01.854Z,2.90
2018-11-21T10:54:29.222Z,2.90
2018-11-21T10:56:56.592Z,3.00
2018-11-21T10:59:23.993Z,3.10
2018-11-21T11:02:09.423Z,3.00
2018-11-21T11:05:02.198Z,3.00
2018-11-21T11:07:47.758Z,3.10
2018-11-21T11:10:34.999Z,3.00
2018-11-21T11:13:20.579Z,3.00
2018-11-21T11:16:16.466Z,3.10
2018-11-21T11:19:02.071Z,3.10
2018-11-21T11:21:54.811Z,3.00
2018-11-21T11:24:53.495Z,3.00
2018-11-21T11:27:39.312Z,2.90
2018-11-21T11:30:24.679Z,2.90
2018-11-21T11:33:23.665Z,3.00
2018-11-21T11:36:13.356Z,3.00
2018-11-21T11:39:09.507Z,3.00
2018-11-21T11:41:55.066Z,3.00
2018-11-21T11:45:00.145Z,2.90
2018-11-21T11:47:55.709Z,3.00
2018-11-21T11:50:41.479Z,3.00
2018-11-21T11:53:40.620Z,3.00
2018-11-21T11:56:36.534Z,3.10
2018-11-21T11:59:22.062Z,3.20
2018-11-21T12:02:08.564Z,3.20
2018-11-21T12:05:12.822Z,3.20
2018-11-21T12:07:59.751Z,3.20
2018-11-21T12:10:55.280Z,3.20
2018-11-21T12:13:45.108Z,3.10
2018-11-21T12:16:30.446Z,3.20
2018-11-21T12:19:16.178Z,3.20
2018-11-21T12:22:03.069Z,3.30
2018-11-21T12:24:48.001Z,3.30
2018-11-21T12:27:36.516Z,3.30
2018-11-21T12:30:19.668Z,3.20
2018-11-21T12:33:12.148Z,3.20
2018-11-21T12:35:57.878Z,3.20
2018-11-21T12:38:47.577Z,3.20
2018-11-21T12:41:34.607Z,3.30
2018-11-21T12:44:36.705Z,3.30
2018-11-21T12:47:23.637Z,3.30
2018-11-21T12:50:10.142Z,3.30
2018-11-21T12:53:08.283Z,3.30
2018-11-21T12:55:53.826Z,3.30
2018-11-21T12:58:49.634Z,3.20
2018-11-21T13:01:35.344Z,3.30
2018-11-21T13:04:28.204Z,3.30
2018-11-21T13:07:13.537Z,3.30
2018-11-21T13:09:58.988Z,3.30
2018-11-21T13:12:45.869Z,3.30
2018-11-21T13:15:44.473Z,3.30
2018-11-21T13:18:29.849Z,3.30
2018-11-21T13:21:16.756Z,3.40
2018-11-21T13:24:02.066Z,3.40
2018-11-21T13:26:43.616Z,3.50
2018-11-21T13:29:36.655Z,3.40
2018-11-21T13:32:29.328Z,3.50
2018-11-21T13:35:18.911Z,3.40
2018-11-21T13:38:08.609Z,3.40
2018-11-21T13:41:07.955Z,3.30
2018-11-21T13:43:57.213Z,3.20
2018-11-21T13:46:44.061Z,3.10
2018-11-21T13:49:29.617Z,3.00
2018-11-21T13:52:15.591Z,2.90
2018-11-21T13:54:48.520Z,2.90
2018-11-21T13:57:17.264Z,2.90
2018-11-21T13:59:44.663Z,2.90
2018-11-21T14:02:12.009Z,2.80
2018-11-21T14:04:39.350Z,2.80
2018-11-21T14:07:07.317Z,2.80
2018-11-21T14:09:34.661Z,2.80
2018-11-21T14:12:02.045Z,2.80
2018-11-21T14:14:29.375Z,2.80
2018-11-21T14:16:56.758Z,2.80
2018-11-21T14:19:24.180Z,2.80
2018-11-21T14:21:55.866Z,2.80
2018-11-21T14:24:18.883Z,2.80
2018-11-21T14:26:46.200Z,2.80
2018-11-21T14:29:13.548Z,2.70
2018-11-21T14:31:40.917Z,2.70
2018-11-21T14:34:08.252Z,2.70
2018-11-21T14:36:35.607Z,2.60
2018-11-21T14:39:04.895Z,2.60
2018-11-21T14:41:32.235Z,2.60
2018-11-21T14:43:59.545Z,2.60
2018-11-21T14:46:26.912Z,2.60
2018-11-21T14:48:54.295Z,2.50
2018-11-21T14:51:21.621Z,2.50
2018-11-21T14:53:49.125Z,2.40
2018-11-21T14:56:16.476Z,2.40
2018-11-21T14:58:43.831Z,2.40
2018-11-21T15:01:11.192Z,2.40
2018-11-21T15:03:38.669Z,2.40
2018-11-21T15:06:06.068Z,2.40
2018-11-21T15:08:33.405Z,2.40
2018-11-21T15:11:00.988Z,2.40
2018-11-21T15:13:28.334Z,2.40
2018-11-21T15:15:55.694Z,2.40
2018-11-21T15:18:23.264Z,2.40
2018-11-21T15:20:50.748Z,2.30
2018-11-21T15:23:18.071Z,2.30
2018-11-21T15:25:45.398Z,2.30
2018-11-21T15:28:12.762Z,2.30
2018-11-21T15:30:40.261Z,2.30
2018-11-21T15:33:07.628Z,2.30
2018-11-21T15:35:34.896Z,2.30
2018-11-21T15:38:02.336Z,2.30
2018-11-21T15:40:29.636Z,2.20
2018-11-21T15:42:57.002Z,2.20
2018-11-21T15:45:25.119Z,2.30
2018-11-21T15:47:54.268Z,2.30
2018-11-21T15:50:21.680Z,2.30
2018-11-21T15:52:53.018Z,2.30
2018-11-21T15:55:17.020Z,2.30
2018-11-21T15:57:44.396Z,2.30
2018-11-21T16:00:13.483Z,2.30
2018-11-21T16:02:41.344Z,2.30
2018-11-21T16:05:08.676Z,2.20
2018-11-21T16:07:36.153Z,2.30
